sensor_id;sensor_type;location;lat;lon;timestamp;P1;durP1;ratioP1;P2;durP2;ratioP2
11481;SDS011;5797;51.662;6.748;2023-03-23T00:00:12;7.03;;;3.53;;
11481;SDS011;5797;51.662;6.748;2023-03-23T00:02:40;6.77;;;3.10;;
11481;SDS011;5797;51.662;6.748;2023-03-23T00:05:09;4.30;;;3.03;;
11481;SDS011;5797;51.662;6.748;2023-03-23T00:07:37;4.63;;;2.60;;
11481;SDS011;5797;51.662;6.748;2023-03-23T00:10:12;7.03;;;2.67;;
11481;SDS011;5797;51.662;6.748;2023-03-23T00:12:39;5.30;;;2.70;;
11481;SDS011;5797;51.662;6.748;2023-03-23T00:15:08;6.73;;;2.50;;
11481;SDS011;5797;51.662;6.748;2023-03-23T00:17:38;5.43;;;3.00;;
11481;SDS011;5797;51.662;6.748;2023-03-23T00:20:06;4.90;;;2.80;;
11481;SDS011;5797;51.662;6.748;2023-03-23T00:22:36;4.53;;;2.77;;
11481;SDS011;5797;51.662;6.748;2023-03-23T00:25:03;5.33;;;2.80;;
11481;SDS011;5797;51.662;6.748;2023-03-23T00:27:32;5.33;;;3.13;;
11481;SDS011;5797;51.662;6.748;2023-03-23T00:30:01;4.40;;;3.00;;
11481;SDS011;5797;51.662;6.748;2023-03-23T00:32:28;5.10;;;2.73;;
11481;SDS011;5797;51.662;6.748;2023-03-23T00:34:56;6.27;;;2.97;;
11481;SDS011;5797;51.662;6.748;2023-03-23T00:37:25;5.27;;;2.70;;
11481;SDS011;5797;51.662;6.748;2023-03-23T00:39:52;3.67;;;2.70;;
11481;SDS011;5797;51.662;6.748;2023-03-23T00:42:23;8.70;;;2.83;;
11481;SDS011;5797;51.662;6.748;2023-03-23T00:44:52;3.90;;;2.87;;
11481;SDS011;5797;51.662;6.748;2023-03-23T00:47:25;3.93;;;2.80;;
11481;SDS011;5797;51.662;6.748;2023-03-23T00:49:53;4.13;;;2.80;;
11481;SDS011;5797;51.662;6.748;2023-03-23T00:52:21;5.30;;;2.87;;
11481;SDS011;5797;51.662;6.748;2023-03-23T00:54:49;4.97;;;3.10;;
11481;SDS011;5797;51.662;6.748;2023-03-23T00:57:16;5.23;;;2.77;;
11481;SDS011;5797;51.662;6.748;2023-03-23T00:59:44;4.07;;;2.70;;
11481;SDS011;5797;51.662;6.748;2023-03-23T01:02:12;3.07;;;2.30;;
11481;SDS011;5797;51.662;6.748;2023-03-23T01:04:40;5.43;;;2.87;;
11481;SDS011;5797;51.662;6.748;2023-03-23T01:07:10;4.60;;;3.03;;
11481;SDS011;5797;51.662;6.748;2023-03-23T01:09:39;3.77;;;2.80;;
11481;SDS011;5797;51.662;6.748;2023-03-23T01:12:12;3.23;;;2.77;;
11481;SDS011;5797;51.662;6.748;2023-03-23T01:14:40;6.17;;;3.53;;
11481;SDS011;5797;51.662;6.748;2023-03-23T01:17:09;5.00;;;2.67;;
11481;SDS011;5797;51.662;6.748;2023-03-23T01:19:37;5.97;;;2.57;;
11481;SDS011;5797;51.662;6.748;2023-03-23T01:22:06;5.20;;;2.90;;
11481;SDS011;5797;51.662;6.748;2023-03-23T01:24:33;4.27;;;2.73;;
11481;SDS011;5797;51.662;6.748;2023-03-23T01:27:00;5.27;;;2.77;;
11481;SDS011;5797;51.662;6.748;2023-03-23T01:29:32;4.37;;;2.50;;
11481;SDS011;5797;51.662;6.748;2023-03-23T01:32:00;7.50;;;2.80;;
11481;SDS011;5797;51.662;6.748;2023-03-23T01:34:28;3.83;;;2.50;;
11481;SDS011;5797;51.662;6.748;2023-03-23T01:36:57;3.30;;;2.50;;
11481;SDS011;5797;51.662;6.748;2023-03-23T01:39:24;6.67;;;2.87;;
11481;SDS011;5797;51.662;6.748;2023-03-23T01:41:52;6.70;;;2.60;;
11481;SDS011;5797;51.662;6.748;2023-03-23T01:47:26;4.80;;;2.83;;
11481;SDS011;5797;51.662;6.748;2023-03-23T01:49:54;4.47;;;2.90;;
11481;SDS011;5797;51.662;6.748;2023-03-23T01:52:25;4.90;;;2.80;;
11481;SDS011;5797;51.662;6.748;2023-03-23T01:54:58;5.50;;;2.53;;
11481;SDS011;5797;51.662;6.748;2023-03-23T01:57:26;4.17;;;2.97;;
11481;SDS011;5797;51.662;6.748;2023-03-23T01:59:56;5.07;;;2.77;;
11481;SDS011;5797;51.662;6.748;2023-03-23T02:02:40;4.37;;;2.80;;
11481;SDS011;5797;51.662;6.748;2023-03-23T02:05:08;5.43;;;2.73;;
11481;SDS011;5797;51.662;6.748;2023-03-23T02:07:41;3.23;;;2.77;;
11481;SDS011;5797;51.662;6.748;2023-03-23T02:10:09;4.17;;;2.97;;
11481;SDS011;5797;51.662;6.748;2023-03-23T02:12:36;3.87;;;3.10;;
11481;SDS011;5797;51.662;6.748;2023-03-23T02:15:04;3.73;;;2.47;;
11481;SDS011;5797;51.662;6.748;2023-03-23T02:17:35;5.30;;;3.47;;
11481;SDS011;5797;51.662;6.748;2023-03-23T02:20:12;4.77;;;2.70;;
11481;SDS011;5797;51.662;6.748;2023-03-23T02:22:53;4.77;;;2.70;;
11481;SDS011;5797;51.662;6.748;2023-03-23T02:25:38;5.20;;;2.77;;
11481;SDS011;5797;51.662;6.748;2023-03-23T02:28:31;4.10;;;2.93;;
11481;SDS011;5797;51.662;6.748;2023-03-23T02:31:29;3.57;;;2.60;;
11481;SDS011;5797;51.662;6.748;2023-03-23T02:34:06;6.33;;;2.97;;
11481;SDS011;5797;51.662;6.748;2023-03-23T02:36:36;3.27;;;2.70;;
11481;SDS011;5797;51.662;6.748;2023-03-23T02:39:10;4.10;;;2.50;;
11481;SDS011;5797;51.662;6.748;2023-03-23T02:41:41;3.17;;;2.63;;
11481;SDS011;5797;51.662;6.748;2023-03-23T02:44:12;3.93;;;3.17;;
11481;SDS011;5797;51.662;6.748;2023-03-23T02:46:40;6.20;;;2.93;;
11481;SDS011;5797;51.662;6.748;2023-03-23T02:49:09;3.43;;;2.77;;
11481;SDS011;5797;51.662;6.748;2023-03-23T02:51:39;6.80;;;2.93;;
11481;SDS011;5797;51.662;6.748;2023-03-23T02:54:08;5.00;;;3.10;;
11481;SDS011;5797;51.662;6.748;2023-03-23T02:56:36;4.90;;;2.50;;
11481;SDS011;5797;51.662;6.748;2023-03-23T02:59:11;5.13;;;2.87;;
11481;SDS011;5797;51.662;6.748;2023-03-23T03:01:50;4.83;;;2.80;;
11481;SDS011;5797;51.662;6.748;2023-03-23T03:04:22;5.17;;;3.07;;
11481;SDS011;5797;51.662;6.748;2023-03-23T03:09:45;4.03;;;2.50;;
11481;SDS011;5797;51.662;6.748;2023-03-23T03:12:15;4.20;;;2.57;;
11481;SDS011;5797;51.662;6.748;2023-03-23T03:14:49;3.77;;;2.50;;
11481;SDS011;5797;51.662;6.748;2023-03-23T03:17:21;4.57;;;2.90;;
11481;SDS011;5797;51.662;6.748;2023-03-23T03:19:52;3.93;;;2.90;;
11481;SDS011;5797;51.662;6.748;2023-03-23T03:22:22;3.03;;;2.53;;
11481;SDS011;5797;51.662;6.748;2023-03-23T03:24:54;3.47;;;2.43;;
11481;SDS011;5797;51.662;6.748;2023-03-23T03:27:23;4.03;;;3.00;;
11481;SDS011;5797;51.662;6.748;2023-03-23T03:30:13;5.03;;;3.13;;
11481;SDS011;5797;51.662;6.748;2023-03-23T03:32:44;3.33;;;2.70;;
11481;SDS011;5797;51.662;6.748;2023-03-23T03:35:17;4.73;;;2.50;;
11481;SDS011;5797;51.662;6.748;2023-03-23T03:37:44;5.20;;;2.87;;
11481;SDS011;5797;51.662;6.748;2023-03-23T03:40:13;5.00;;;2.83;;
11481;SDS011;5797;51.662;6.748;2023-03-23T03:42:42;6.27;;;2.70;;
11481;SDS011;5797;51.662;6.748;2023-03-23T03:45:11;5.30;;;2.87;;
11481;SDS011;5797;51.662;6.748;2023-03-23T03:47:39;3.37;;;2.70;;
11481;SDS011;5797;51.662;6.748;2023-03-23T03:50:07;5.63;;;3.43;;
11481;SDS011;5797;51.662;6.748;2023-03-23T03:52:37;3.67;;;2.87;;
11481;SDS011;5797;51.662;6.748;2023-03-23T03:55:06;7.93;;;3.07;;
11481;SDS011;5797;51.662;6.748;2023-03-23T03:57:38;5.93;;;2.80;;
11481;SDS011;5797;51.662;6.748;2023-03-23T04:00:29;4.77;;;2.77;;
11481;SDS011;5797;51.662;6.748;2023-03-23T04:02:57;3.63;;;2.63;;
11481;SDS011;5797;51.662;6.748;2023-03-23T04:05:41;5.23;;;3.13;;
11481;SDS011;5797;51.662;6.748;2023-03-23T04:08:12;2.60;;;2.30;;
11481;SDS011;5797;51.662;6.748;2023-03-23T04:10:39;3.10;;;2.67;;
11481;SDS011;5797;51.662;6.748;2023-03-23T04:13:07;3.30;;;2.60;;
11481;SDS011;5797;51.662;6.748;2023-03-23T04:15:55;4.73;;;2.70;;
11481;SDS011;5797;51.662;6.748;2023-03-23T04:18:22;3.00;;;2.47;;
11481;SDS011;5797;51.662;6.748;2023-03-23T04:20:51;2.83;;;2.30;;
11481;SDS011;5797;51.662;6.748;2023-03-23T04:23:21;4.73;;;3.00;;
11481;SDS011;5797;51.662;6.748;2023-03-23T04:25:51;4.97;;;2.93;;
11481;SDS011;5797;51.662;6.748;2023-03-23T04:28:19;2.70;;;2.43;;
11481;SDS011;5797;51.662;6.748;2023-03-23T04:31:09;3.07;;;2.33;;
11481;SDS011;5797;51.662;6.748;2023-03-23T04:33:41;4.83;;;2.80;;
11481;SDS011;5797;51.662;6.748;2023-03-23T04:36:09;5.97;;;2.50;;
11481;SDS011;5797;51.662;6.748;2023-03-23T04:38:40;4.10;;;2.80;;
11481;SDS011;5797;51.662;6.748;2023-03-23T04:41:15;5.70;;;2.97;;
11481;SDS011;5797;51.662;6.748;2023-03-23T04:43:50;3.50;;;2.70;;
11481;SDS011;5797;51.662;6.748;2023-03-23T04:46:33;6.57;;;3.07;;
11481;SDS011;5797;51.662;6.748;2023-03-23T04:49:06;3.93;;;2.80;;
11481;SDS011;5797;51.662;6.748;2023-03-23T04:51:37;6.00;;;3.00;;
11481;SDS011;5797;51.662;6.748;2023-03-23T04:54:26;4.00;;;2.70;;
11481;SDS011;5797;51.662;6.748;2023-03-23T04:56:57;5.60;;;3.10;;
11481;SDS011;5797;51.662;6.748;2023-03-23T04:59:26;5.50;;;2.90;;
11481;SDS011;5797;51.662;6.748;2023-03-23T05:02:01;4.03;;;2.73;;
11481;SDS011;5797;51.662;6.748;2023-03-23T05:04:30;2.73;;;2.30;;
11481;SDS011;5797;51.662;6.748;2023-03-23T05:07:07;3.50;;;2.50;;
11481;SDS011;5797;51.662;6.748;2023-03-23T05:09:46;4.80;;;2.87;;
11481;SDS011;5797;51.662;6.748;2023-03-23T05:12:15;5.10;;;3.10;;
11481;SDS011;5797;51.662;6.748;2023-03-23T05:14:51;4.97;;;3.10;;
11481;SDS011;5797;51.662;6.748;2023-03-23T05:17:23;5.97;;;2.83;;
11481;SDS011;5797;51.662;6.748;2023-03-23T05:20:04;4.03;;;2.60;;
11481;SDS011;5797;51.662;6.748;2023-03-23T05:22:42;3.80;;;2.63;;
11481;SDS011;5797;51.662;6.748;2023-03-23T05:25:15;2.50;;;2.23;;
11481;SDS011;5797;51.662;6.748;2023-03-23T05:27:48;3.87;;;2.50;;
11481;SDS011;5797;51.662;6.748;2023-03-23T05:30:45;4.23;;;2.57;;
11481;SDS011;5797;51.662;6.748;2023-03-23T05:33:15;4.70;;;2.80;;
11481;SDS011;5797;51.662;6.748;2023-03-23T05:35:49;3.00;;;2.37;;
11481;SDS011;5797;51.662;6.748;2023-03-23T05:38:23;6.47;;;2.47;;
11481;SDS011;5797;51.662;6.748;2023-03-23T05:40:52;4.17;;;2.63;;
11481;SDS011;5797;51.662;6.748;2023-03-23T05:43:26;4.40;;;2.20;;
11481;SDS011;5797;51.662;6.748;2023-03-23T05:46:07;3.80;;;3.00;;
11481;SDS011;5797;51.662;6.748;2023-03-23T05:48:36;3.60;;;2.77;;
11481;SDS011;5797;51.662;6.748;2023-03-23T05:51:05;4.23;;;3.50;;
11481;SDS011;5797;51.662;6.748;2023-03-23T05:53:37;5.23;;;2.60;;
11481;SDS011;5797;51.662;6.748;2023-03-23T05:56:06;2.90;;;2.40;;
11481;SDS011;5797;51.662;6.748;2023-03-23T05:58:54;2.63;;;2.20;;
11481;SDS011;5797;51.662;6.748;2023-03-23T06:01:22;4.03;;;2.87;;
11481;SDS011;5797;51.662;6.748;2023-03-23T06:03:50;5.30;;;3.00;;
11481;SDS011;5797;51.662;6.748;2023-03-23T06:06:25;4.80;;;2.60;;
11481;SDS011;5797;51.662;6.748;2023-03-23T06:09:03;5.03;;;2.53;;
11481;SDS011;5797;51.662;6.748;2023-03-23T06:11:44;3.37;;;2.40;;
11481;SDS011;5797;51.662;6.748;2023-03-23T06:14:31;4.20;;;2.43;;
11481;SDS011;5797;51.662;6.748;2023-03-23T06:16:59;3.57;;;2.60;;
11481;SDS011;5797;51.662;6.748;2023-03-23T06:19:26;5.43;;;2.87;;
11481;SDS011;5797;51.662;6.748;2023-03-23T06:22:02;5.73;;;2.47;;
11481;SDS011;5797;51.662;6.748;2023-03-23T06:24:51;3.80;;;2.33;;
11481;SDS011;5797;51.662;6.748;2023-03-23T06:27:26;5.07;;;2.77;;
11481;SDS011;5797;51.662;6.748;2023-03-23T06:29:54;3.07;;;2.67;;
11481;SDS011;5797;51.662;6.748;2023-03-23T06:32:22;5.07;;;2.80;;
11481;SDS011;5797;51.662;6.748;2023-03-23T06:34:51;4.73;;;2.70;;
11481;SDS011;5797;51.662;6.748;2023-03-23T06:37:37;3.73;;;2.50;;
11481;SDS011;5797;51.662;6.748;2023-03-23T06:40:14;5.77;;;2.80;;
11481;SDS011;5797;51.662;6.748;2023-03-23T06:42:51;4.03;;;2.33;;
11481;SDS011;5797;51.662;6.748;2023-03-23T06:45:24;3.60;;;2.20;;
11481;SDS011;5797;51.662;6.748;2023-03-23T06:48:06;4.33;;;2.20;;
11481;SDS011;5797;51.662;6.748;2023-03-23T06:50:34;3.87;;;2.17;;
11481;SDS011;5797;51.662;6.748;2023-03-23T06:53:02;2.87;;;2.53;;
11481;SDS011;5797;51.662;6.748;2023-03-23T06:55:29;6.30;;;2.20;;
11481;SDS011;5797;51.662;6.748;2023-03-23T06:57:58;4.53;;;2.13;;
11481;SDS011;5797;51.662;6.748;2023-03-23T07:00:27;5.20;;;2.60;;
11481;SDS011;5797;51.662;6.748;2023-03-23T07:02:55;5.40;;;2.90;;
11481;SDS011;5797;51.662;6.748;2023-03-23T07:05:23;2.83;;;2.10;;
11481;SDS011;5797;51.662;6.748;2023-03-23T07:07:51;4.97;;;2.70;;
11481;SDS011;5797;51.662;6.748;2023-03-23T07:10:44;5.40;;;2.37;;
11481;SDS011;5797;51.662;6.748;2023-03-23T07:13:14;4.63;;;2.10;;
11481;SDS011;5797;51.662;6.748;2023-03-23T07:15:48;6.20;;;2.30;;
11481;SDS011;5797;51.662;6.748;2023-03-23T07:18:16;6.53;;;2.23;;
11481;SDS011;5797;51.662;6.748;2023-03-23T07:20:47;6.07;;;2.47;;
11481;SDS011;5797;51.662;6.748;2023-03-23T07:23:15;3.10;;;2.17;;
11481;SDS011;5797;51.662;6.748;2023-03-23T07:26:03;4.50;;;2.03;;
11481;SDS011;5797;51.662;6.748;2023-03-23T07:28:48;5.07;;;2.00;;
11481;SDS011;5797;51.662;6.748;2023-03-23T07:31:28;4.77;;;2.23;;
11481;SDS011;5797;51.662;6.748;2023-03-23T07:33:56;6.87;;;2.47;;
11481;SDS011;5797;51.662;6.748;2023-03-23T07:36:30;5.60;;;2.37;;
11481;SDS011;5797;51.662;6.748;2023-03-23T07:38:58;11.37;;;2.50;;
11481;SDS011;5797;51.662;6.748;2023-03-23T07:41:26;4.33;;;2.17;;
11481;SDS011;5797;51.662;6.748;2023-03-23T07:43:57;6.77;;;2.23;;
11481;SDS011;5797;51.662;6.748;2023-03-23T07:46:35;4.03;;;2.50;;
11481;SDS011;5797;51.662;6.748;2023-03-23T07:49:14;5.60;;;2.03;;
11481;SDS011;5797;51.662;6.748;2023-03-23T07:51:55;6.27;;;2.17;;
11481;SDS011;5797;51.662;6.748;2023-03-23T07:54:23;5.57;;;2.37;;
11481;SDS011;5797;51.662;6.748;2023-03-23T07:57:13;4.30;;;2.73;;
11481;SDS011;5797;51.662;6.748;2023-03-23T07:59:48;5.07;;;2.30;;
11481;SDS011;5797;51.662;6.748;2023-03-23T08:02:15;3.10;;;1.90;;
11481;SDS011;5797;51.662;6.748;2023-03-23T08:04:49;4.93;;;2.20;;
11481;SDS011;5797;51.662;6.748;2023-03-23T08:07:45;3.27;;;2.00;;
11481;SDS011;5797;51.662;6.748;2023-03-23T08:10:39;3.67;;;2.00;;
11481;SDS011;5797;51.662;6.748;2023-03-23T08:13:24;5.33;;;1.97;;
11481;SDS011;5797;51.662;6.748;2023-03-23T08:16:13;3.33;;;2.00;;
11481;SDS011;5797;51.662;6.748;2023-03-23T08:18:53;6.53;;;2.10;;
11481;SDS011;5797;51.662;6.748;2023-03-23T08:21:43;3.60;;;2.20;;
11481;SDS011;5797;51.662;6.748;2023-03-23T08:24:10;5.83;;;2.07;;
11481;SDS011;5797;51.662;6.748;2023-03-23T08:26:57;5.17;;;2.37;;
11481;SDS011;5797;51.662;6.748;2023-03-23T08:29:27;3.83;;;2.40;;
11481;SDS011;5797;51.662;6.748;2023-03-23T08:32:07;6.53;;;2.17;;
11481;SDS011;5797;51.662;6.748;2023-03-23T08:35:04;7.87;;;2.53;;
11481;SDS011;5797;51.662;6.748;2023-03-23T08:38:04;5.30;;;2.47;;
11481;SDS011;5797;51.662;6.748;2023-03-23T08:40:44;4.27;;;2.03;;
11481;SDS011;5797;51.662;6.748;2023-03-23T08:43:32;4.27;;;2.00;;
11481;SDS011;5797;51.662;6.748;2023-03-23T08:46:29;4.87;;;2.03;;
11481;SDS011;5797;51.662;6.748;2023-03-23T08:49:16;2.90;;;1.80;;
11481;SDS011;5797;51.662;6.748;2023-03-23T08:51:58;6.47;;;2.20;;
11481;SDS011;5797;51.662;6.748;2023-03-23T08:54:44;2.90;;;1.93;;
11481;SDS011;5797;51.662;6.748;2023-03-23T08:57:31;5.00;;;1.80;;
11481;SDS011;5797;51.662;6.748;2023-03-23T09:00:17;5.03;;;2.37;;
11481;SDS011;5797;51.662;6.748;2023-03-23T09:03:05;8.03;;;2.23;;
11481;SDS011;5797;51.662;6.748;2023-03-23T09:05:59;7.43;;;2.57;;
11481;SDS011;5797;51.662;6.748;2023-03-23T09:08:35;2.93;;;1.80;;
11481;SDS011;5797;51.662;6.748;2023-03-23T09:11:03;5.03;;;1.40;;
11481;SDS011;5797;51.662;6.748;2023-03-23T09:13:32;4.03;;;1.30;;
11481;SDS011;5797;51.662;6.748;2023-03-23T09:16:00;4.27;;;1.30;;
11481;SDS011;5797;51.662;6.748;2023-03-23T09:18:27;4.07;;;1.20;;
11481;SDS011;5797;51.662;6.748;2023-03-23T09:20:55;2.37;;;1.03;;
11481;SDS011;5797;51.662;6.748;2023-03-23T09:23:25;1.23;;;0.90;;
11481;SDS011;5797;51.662;6.748;2023-03-23T09:25:53;3.43;;;1.00;;
11481;SDS011;5797;51.662;6.748;2023-03-23T09:28:20;2.43;;;0.93;;
11481;SDS011;5797;51.662;6.748;2023-03-23T09:30:48;1.53;;;1.00;;
11481;SDS011;5797;51.662;6.748;2023-03-23T09:33:17;1.53;;;1.07;;
11481;SDS011;5797;51.662;6.748;2023-03-23T09:35:44;4.43;;;1.03;;
11481;SDS011;5797;51.662;6.748;2023-03-23T09:38:12;1.50;;;1.10;;
11481;SDS011;5797;51.662;6.748;2023-03-23T09:40:42;3.20;;;1.00;;
11481;SDS011;5797;51.662;6.748;2023-03-23T09:46:24;5.10;;;1.23;;
11481;SDS011;5797;51.662;6.748;2023-03-23T09:48:58;2.53;;;1.30;;
11481;SDS011;5797;51.662;6.748;2023-03-23T09:51:33;1.83;;;0.93;;
11481;SDS011;5797;51.662;6.748;2023-03-23T09:54:09;4.67;;;1.60;;
11481;SDS011;5797;51.662;6.748;2023-03-23T09:56:40;2.40;;;1.60;;
11481;SDS011;5797;51.662;6.748;2023-03-23T09:59:10;4.60;;;1.20;;
11481;SDS011;5797;51.662;6.748;2023-03-23T10:01:42;3.00;;;1.17;;
11481;SDS011;5797;51.662;6.748;2023-03-23T10:04:14;2.50;;;1.20;;
11481;SDS011;5797;51.662;6.748;2023-03-23T10:06:46;3.67;;;1.17;;
11481;SDS011;5797;51.662;6.748;2023-03-23T10:09:15;1.43;;;0.87;;
11481;SDS011;5797;51.662;6.748;2023-03-23T10:11:47;3.27;;;1.07;;
11481;SDS011;5797;51.662;6.748;2023-03-23T10:14:23;2.10;;;1.10;;
11481;SDS011;5797;51.662;6.748;2023-03-23T10:17:00;4.17;;;1.03;;
11481;SDS011;5797;51.662;6.748;2023-03-23T10:19:33;2.90;;;1.00;;
11481;SDS011;5797;51.662;6.748;2023-03-23T10:22:03;1.60;;;1.00;;
11481;SDS011;5797;51.662;6.748;2023-03-23T10:24:34;6.63;;;1.70;;
11481;SDS011;5797;51.662;6.748;2023-03-23T10:27:06;3.13;;;0.80;;
11481;SDS011;5797;51.662;6.748;2023-03-23T10:29:41;1.77;;;1.20;;
11481;SDS011;5797;51.662;6.748;2023-03-23T10:32:11;2.73;;;0.93;;
11481;SDS011;5797;51.662;6.748;2023-03-23T10:34:41;1.67;;;1.17;;
11481;SDS011;5797;51.662;6.748;2023-03-23T10:37:13;1.23;;;1.10;;
11481;SDS011;5797;51.662;6.748;2023-03-23T10:39:45;3.57;;;1.27;;
11481;SDS011;5797;51.662;6.748;2023-03-23T10:42:22;2.37;;;1.07;;
11481;SDS011;5797;51.662;6.748;2023-03-23T10:44:52;1.63;;;1.20;;
11481;SDS011;5797;51.662;6.748;2023-03-23T10:47:19;3.77;;;1.13;;
11481;SDS011;5797;51.662;6.748;2023-03-23T10:49:48;5.73;;;1.20;;
11481;SDS011;5797;51.662;6.748;2023-03-23T10:52:23;5.17;;;1.30;;
11481;SDS011;5797;51.662;6.748;2023-03-23T10:54:54;2.17;;;1.30;;
11481;SDS011;5797;51.662;6.748;2023-03-23T10:57:25;1.37;;;0.90;;
11481;SDS011;5797;51.662;6.748;2023-03-23T10:59:59;3.47;;;0.97;;
11481;SDS011;5797;51.662;6.748;2023-03-23T11:02:31;4.80;;;1.40;;
11481;SDS011;5797;51.662;6.748;2023-03-23T11:05:03;4.10;;;1.07;;
11481;SDS011;5797;51.662;6.748;2023-03-23T11:07:34;1.83;;;1.00;;
11481;SDS011;5797;51.662;6.748;2023-03-23T11:10:06;2.47;;;0.90;;
11481;SDS011;5797;51.662;6.748;2023-03-23T11:12:45;1.20;;;1.10;;
11481;SDS011;5797;51.662;6.748;2023-03-23T11:15:21;2.27;;;0.80;;
11481;SDS011;5797;51.662;6.748;2023-03-23T11:18:00;1.33;;;0.97;;
11481;SDS011;5797;51.662;6.748;2023-03-23T11:20:29;2.50;;;0.90;;
11481;SDS011;5797;51.662;6.748;2023-03-23T11:23:01;2.93;;;1.00;;
11481;SDS011;5797;51.662;6.748;2023-03-23T11:25:47;2.00;;;1.40;;
11481;SDS011;5797;51.662;6.748;2023-03-23T11:28:18;0.87;;;0.87;;
11481;SDS011;5797;51.662;6.748;2023-03-23T11:30:46;1.27;;;1.10;;
11481;SDS011;5797;51.662;6.748;2023-03-23T11:33:13;2.20;;;1.20;;
11481;SDS011;5797;51.662;6.748;2023-03-23T11:35:43;3.03;;;1.20;;
11481;SDS011;5797;51.662;6.748;2023-03-23T11:38:15;1.50;;;0.77;;
11481;SDS011;5797;51.662;6.748;2023-03-23T11:40:46;3.60;;;1.23;;
11481;SDS011;5797;51.662;6.748;2023-03-23T11:43:17;1.67;;;1.10;;
11481;SDS011;5797;51.662;6.748;2023-03-23T11:45:48;2.70;;;1.10;;
11481;SDS011;5797;51.662;6.748;2023-03-23T11:48:23;1.97;;;1.20;;
11481;SDS011;5797;51.662;6.748;2023-03-23T11:50:54;2.07;;;1.10;;
11481;SDS011;5797;51.662;6.748;2023-03-23T11:53:33;4.53;;;1.27;;
11481;SDS011;5797;51.662;6.748;2023-03-23T11:56:07;3.10;;;1.10;;
11481;SDS011;5797;51.662;6.748;2023-03-23T11:58:40;6.70;;;1.30;;
11481;SDS011;5797;51.662;6.748;2023-03-23T12:01:10;2.00;;;1.10;;
11481;SDS011;5797;51.662;6.748;2023-03-23T12:03:47;3.53;;;1.10;;
11481;SDS011;5797;51.662;6.748;2023-03-23T12:06:25;2.73;;;1.30;;
11481;SDS011;5797;51.662;6.748;2023-03-23T12:09:02;2.30;;;1.03;;
11481;SDS011;5797;51.662;6.748;2023-03-23T12:11:37;1.17;;;1.00;;
11481;SDS011;5797;51.662;6.748;2023-03-23T12:14:21;5.37;;;1.10;;
11481;SDS011;5797;51.662;6.748;2023-03-23T12:16:57;3.63;;;1.23;;
11481;SDS011;5797;51.662;6.748;2023-03-23T12:19:33;1.13;;;1.03;;
11481;SDS011;5797;51.662;6.748;2023-03-23T12:22:06;1.50;;;1.23;;
11481;SDS011;5797;51.662;6.748;2023-03-23T12:24:43;2.63;;;1.30;;
11481;SDS011;5797;51.662;6.748;2023-03-23T12:27:19;1.07;;;0.97;;
11481;SDS011;5797;51.662;6.748;2023-03-23T12:29:57;1.60;;;1.20;;
11481;SDS011;5797;51.662;6.748;2023-03-23T12:32:33;1.50;;;1.07;;
11481;SDS011;5797;51.662;6.748;2023-03-23T12:35:23;5.77;;;1.17;;
11481;SDS011;5797;51.662;6.748;2023-03-23T12:38:01;3.13;;;1.30;;
11481;SDS011;5797;51.662;6.748;2023-03-23T12:40:45;3.40;;;1.30;;
11481;SDS011;5797;51.662;6.748;2023-03-23T12:43:18;4.13;;;1.70;;
11481;SDS011;5797;51.662;6.748;2023-03-23T12:45:53;1.37;;;1.13;;
11481;SDS011;5797;51.662;6.748;2023-03-23T12:48:26;2.07;;;1.37;;
11481;SDS011;5797;51.662;6.748;2023-03-23T12:51:02;1.67;;;1.17;;
11481;SDS011;5797;51.662;6.748;2023-03-23T12:53:36;2.57;;;1.40;;
11481;SDS011;5797;51.662;6.748;2023-03-23T12:56:15;1.87;;;1.37;;
11481;SDS011;5797;51.662;6.748;2023-03-23T12:58:45;1.27;;;1.17;;
11481;SDS011;5797;51.662;6.748;2023-03-23T13:01:16;3.67;;;1.83;;
11481;SDS011;5797;51.662;6.748;2023-03-23T13:03:49;1.77;;;1.60;;
11481;SDS011;5797;51.662;6.748;2023-03-23T13:06:22;4.63;;;1.87;;
11481;SDS011;5797;51.662;6.748;2023-03-23T13:08:57;3.97;;;2.20;;
11481;SDS011;5797;51.662;6.748;2023-03-23T13:11:28;2.87;;;1.70;;
11481;SDS011;5797;51.662;6.748;2023-03-23T13:14:01;4.00;;;1.63;;
11481;SDS011;5797;51.662;6.748;2023-03-23T13:16:37;3.93;;;1.80;;
11481;SDS011;5797;51.662;6.748;2023-03-23T13:19:11;2.13;;;1.70;;
11481;SDS011;5797;51.662;6.748;2023-03-23T13:21:43;2.20;;;1.63;;
11481;SDS011;5797;51.662;6.748;2023-03-23T13:24:12;3.03;;;1.57;;
11481;SDS011;5797;51.662;6.748;2023-03-23T13:26:42;4.77;;;1.90;;
11481;SDS011;5797;51.662;6.748;2023-03-23T13:29:13;3.10;;;1.67;;
11481;SDS011;5797;51.662;6.748;2023-03-23T13:31:42;3.50;;;2.10;;
11481;SDS011;5797;51.662;6.748;2023-03-23T13:34:13;3.57;;;1.90;;
11481;SDS011;5797;51.662;6.748;2023-03-23T13:36:44;5.60;;;2.40;;
11481;SDS011;5797;51.662;6.748;2023-03-23T13:39:22;3.10;;;1.70;;
11481;SDS011;5797;51.662;6.748;2023-03-23T13:42:02;3.70;;;2.10;;
11481;SDS011;5797;51.662;6.748;2023-03-23T13:44:41;4.40;;;2.00;;
11481;SDS011;5797;51.662;6.748;2023-03-23T13:47:26;2.83;;;1.73;;
11481;SDS011;5797;51.662;6.748;2023-03-23T13:49:56;5.17;;;1.73;;
11481;SDS011;5797;51.662;6.748;2023-03-23T13:52:36;4.17;;;1.93;;
11481;SDS011;5797;51.662;6.748;2023-03-23T13:55:12;4.43;;;2.50;;
11481;SDS011;5797;51.662;6.748;2023-03-23T13:57:49;4.23;;;2.60;;
11481;SDS011;5797;51.662;6.748;2023-03-23T14:00:27;2.23;;;1.97;;
11481;SDS011;5797;51.662;6.748;2023-03-23T14:03:11;3.77;;;2.40;;
11481;SDS011;5797;51.662;6.748;2023-03-23T14:05:41;4.90;;;2.30;;
11481;SDS011;5797;51.662;6.748;2023-03-23T14:08:11;4.63;;;2.07;;
11481;SDS011;5797;51.662;6.748;2023-03-23T14:10:41;7.83;;;2.37;;
11481;SDS011;5797;51.662;6.748;2023-03-23T14:13:19;3.60;;;1.97;;
11481;SDS011;5797;51.662;6.748;2023-03-23T14:15:55;5.37;;;2.33;;
11481;SDS011;5797;51.662;6.748;2023-03-23T14:18:27;4.07;;;2.10;;
11481;SDS011;5797;51.662;6.748;2023-03-23T14:20:59;8.93;;;2.53;;
11481;SDS011;5797;51.662;6.748;2023-03-23T14:23:26;4.30;;;2.20;;
11481;SDS011;5797;51.662;6.748;2023-03-23T14:25:54;5.40;;;2.20;;
11481;SDS011;5797;51.662;6.748;2023-03-23T14:28:23;5.77;;;2.33;;
11481;SDS011;5797;51.662;6.748;2023-03-23T14:30:54;4.20;;;2.33;;
11481;SDS011;5797;51.662;6.748;2023-03-23T14:33:23;3.60;;;2.33;;
11481;SDS011;5797;51.662;6.748;2023-03-23T14:35:53;4.53;;;2.40;;
11481;SDS011;5797;51.662;6.748;2023-03-23T14:38:21;3.77;;;2.00;;
11481;SDS011;5797;51.662;6.748;2023-03-23T14:40:50;4.83;;;2.70;;
11481;SDS011;5797;51.662;6.748;2023-03-23T14:43:18;3.73;;;2.63;;
11481;SDS011;5797;51.662;6.748;2023-03-23T14:45:47;5.17;;;2.40;;
11481;SDS011;5797;51.662;6.748;2023-03-23T14:48:17;3.87;;;2.57;;
11481;SDS011;5797;51.662;6.748;2023-03-23T14:50:48;6.37;;;2.20;;
11481;SDS011;5797;51.662;6.748;2023-03-23T14:53:19;4.47;;;2.60;;
11481;SDS011;5797;51.662;6.748;2023-03-23T14:55:49;5.43;;;2.17;;
11481;SDS011;5797;51.662;6.748;2023-03-23T14:58:18;5.83;;;2.80;;
11481;SDS011;5797;51.662;6.748;2023-03-23T15:00:47;3.57;;;2.37;;
11481;SDS011;5797;51.662;6.748;2023-03-23T15:03:18;4.83;;;2.27;;
11481;SDS011;5797;51.662;6.748;2023-03-23T15:05:46;4.20;;;2.13;;
11481;SDS011;5797;51.662;6.748;2023-03-23T15:08:18;2.33;;;2.00;;
11481;SDS011;5797;51.662;6.748;2023-03-23T15:10:52;6.43;;;2.30;;
11481;SDS011;5797;51.662;6.748;2023-03-23T15:13:20;6.67;;;2.47;;
11481;SDS011;5797;51.662;6.748;2023-03-23T15:15:47;3.10;;;2.10;;
11481;SDS011;5797;51.662;6.748;2023-03-23T15:18:22;6.27;;;2.10;;
11481;SDS011;5797;51.662;6.748;2023-03-23T15:20:56;3.83;;;2.20;;
11481;SDS011;5797;51.662;6.748;2023-03-23T15:23:27;5.73;;;2.13;;
11481;SDS011;5797;51.662;6.748;2023-03-23T15:25:56;4.80;;;2.13;;
11481;SDS011;5797;51.662;6.748;2023-03-23T15:28:29;3.67;;;2.23;;
11481;SDS011;5797;51.662;6.748;2023-03-23T15:30:59;4.70;;;2.03;;
11481;SDS011;5797;51.662;6.748;2023-03-23T15:33:33;4.33;;;2.17;;
11481;SDS011;5797;51.662;6.748;2023-03-23T15:36:05;3.57;;;1.80;;
11481;SDS011;5797;51.662;6.748;2023-03-23T15:38:35;5.67;;;2.00;;
11481;SDS011;5797;51.662;6.748;2023-03-23T15:41:04;5.47;;;1.87;;
11481;SDS011;5797;51.662;6.748;2023-03-23T15:43:34;4.17;;;1.87;;
11481;SDS011;5797;51.662;6.748;2023-03-23T15:46:03;5.70;;;2.20;;